sensor_id;sensor_type;location;lat;lon;timestamp;P1;durP1;ratioP1;P2;durP2;ratioP2
22184;SDS011;11258;52.516;13.318;2022-12-08T00:02:18;15.77;;;6.13;;
22184;SDS011;11258;52.516;13.318;2022-12-08T00:04:43;12.37;;;5.53;;
22184;SDS011;11258;52.516;13.318;2022-12-08T00:07:27;12.87;;;6.47;;
22184;SDS011;11258;52.516;13.318;2022-12-08T00:10:11;12.97;;;6.33;;
22184;SDS011;11258;52.516;13.318;2022-12-08T00:12:37;8.53;;;5.10;;
22184;SDS011;11258;52.516;13.318;2022-12-08T00:15:03;12.03;;;5.63;;
22184;SDS011;11258;52.516;13.318;2022-12-08T00:17:29;8.97;;;5.93;;
22184;SDS011;11258;52.516;13.318;2022-12-08T00:19:54;10.97;;;5.93;;
22184;SDS011;11258;52.516;13.318;2022-12-08T00:22:20;10.27;;;5.73;;
22184;SDS011;11258;52.516;13.318;2022-12-08T00:24:45;11.50;;;6.07;;
22184;SDS011;11258;52.516;13.318;2022-12-08T00:27:12;11.40;;;6.37;;
22184;SDS011;11258;52.516;13.318;2022-12-08T00:29:39;12.43;;;6.70;;
22184;SDS011;11258;52.516;13.318;2022-12-08T00:32:06;11.37;;;5.70;;
22184;SDS011;11258;52.516;13.318;2022-12-08T00:34:32;12.10;;;6.60;;
22184;SDS011;11258;52.516;13.318;2022-12-08T00:36:58;11.07;;;6.60;;
22184;SDS011;11258;52.516;13.318;2022-12-08T00:39:24;11.60;;;6.47;;
22184;SDS011;11258;52.516;13.318;2022-12-08T00:41:49;19.00;;;7.07;;
22184;SDS011;11258;52.516;13.318;2022-12-08T00:44:33;14.53;;;6.90;;
22184;SDS011;11258;52.516;13.318;2022-12-08T00:46:59;11.13;;;6.23;;
22184;SDS011;11258;52.516;13.318;2022-12-08T00:49:25;9.10;;;6.03;;
22184;SDS011;11258;52.516;13.318;2022-12-08T00:51:50;11.83;;;6.13;;
22184;SDS011;11258;52.516;13.318;2022-12-08T00:54:16;10.33;;;6.27;;
22184;SDS011;11258;52.516;13.318;2022-12-08T00:56:42;12.67;;;6.27;;
22184;SDS011;11258;52.516;13.318;2022-12-08T00:59:07;12.03;;;6.67;;
22184;SDS011;11258;52.516;13.318;2022-12-08T01:01:34;11.13;;;6.40;;
22184;SDS011;11258;52.516;13.318;2022-12-08T01:04:07;13.37;;;7.27;;
22184;SDS011;11258;52.516;13.318;2022-12-08T01:06:34;13.20;;;6.67;;
22184;SDS011;11258;52.516;13.318;2022-12-08T01:09:01;15.57;;;7.70;;
22184;SDS011;11258;52.516;13.318;2022-12-08T01:11:28;15.93;;;7.60;;
22184;SDS011;11258;52.516;13.318;2022-12-08T01:13:53;11.70;;;7.33;;
22184;SDS011;11258;52.516;13.318;2022-12-08T01:16:23;16.33;;;7.20;;
22184;SDS011;11258;52.516;13.318;2022-12-08T01:18:50;14.13;;;7.70;;
22184;SDS011;11258;52.516;13.318;2022-12-08T01:21:16;12.00;;;7.17;;
22184;SDS011;11258;52.516;13.318;2022-12-08T01:23:43;14.33;;;6.83;;
22184;SDS011;11258;52.516;13.318;2022-12-08T01:26:09;11.43;;;6.70;;
22184;SDS011;11258;52.516;13.318;2022-12-08T01:28:36;10.93;;;6.80;;
22184;SDS011;11258;52.516;13.318;2022-12-08T01:31:02;12.63;;;6.67;;
22184;SDS011;11258;52.516;13.318;2022-12-08T01:33:28;14.23;;;7.13;;
22184;SDS011;11258;52.516;13.318;2022-12-08T01:35:54;12.03;;;7.20;;
22184;SDS011;11258;52.516;13.318;2022-12-08T01:38:20;10.77;;;7.00;;
22184;SDS011;11258;52.516;13.318;2022-12-08T01:40:46;12.53;;;6.77;;
22184;SDS011;11258;52.516;13.318;2022-12-08T01:43:16;10.43;;;6.00;;
22184;SDS011;11258;52.516;13.318;2022-12-08T01:45:43;12.50;;;6.63;;
22184;SDS011;11258;52.516;13.318;2022-12-08T01:48:10;10.57;;;6.77;;
22184;SDS011;11258;52.516;13.318;2022-12-08T01:50:43;12.93;;;7.53;;
22184;SDS011;11258;52.516;13.318;2022-12-08T01:53:19;10.10;;;6.40;;
22184;SDS011;11258;52.516;13.318;2022-12-08T01:58:22;12.33;;;6.63;;
22184;SDS011;11258;52.516;13.318;2022-12-08T02:00:52;15.30;;;8.20;;
22184;SDS011;11258;52.516;13.318;2022-12-08T02:03:26;14.00;;;7.63;;
22184;SDS011;11258;52.516;13.318;2022-12-08T02:05:54;14.57;;;7.00;;
22184;SDS011;11258;52.516;13.318;2022-12-08T02:08:20;12.57;;;7.80;;
22184;SDS011;11258;52.516;13.318;2022-12-08T02:10:47;12.33;;;7.13;;
22184;SDS011;11258;52.516;13.318;2022-12-08T02:13:14;12.90;;;7.17;;
22184;SDS011;11258;52.516;13.318;2022-12-08T02:18:35;11.93;;;6.90;;
22184;SDS011;11258;52.516;13.318;2022-12-08T02:26:59;12.40;;;7.37;;
22184;SDS011;11258;52.516;13.318;2022-12-08T02:29:50;11.07;;;7.07;;
22184;SDS011;11258;52.516;13.318;2022-12-08T02:46:31;10.17;;;6.07;;
22184;SDS011;11258;52.516;13.318;2022-12-08T02:49:02;10.53;;;6.67;;
22184;SDS011;11258;52.516;13.318;2022-12-08T02:51:29;12.07;;;6.20;;
22184;SDS011;11258;52.516;13.318;2022-12-08T02:53:54;9.43;;;5.67;;
22184;SDS011;11258;52.516;13.318;2022-12-08T02:56:44;10.77;;;6.43;;
22184;SDS011;11258;52.516;13.318;2022-12-08T02:59:31;8.77;;;5.33;;
22184;SDS011;11258;52.516;13.318;2022-12-08T03:04:45;9.87;;;6.03;;
22184;SDS011;11258;52.516;13.318;2022-12-08T03:07:29;8.53;;;4.83;;
22184;SDS011;11258;52.516;13.318;2022-12-08T03:12:33;11.57;;;6.20;;
22184;SDS011;11258;52.516;13.318;2022-12-08T03:15:06;8.17;;;5.00;;
22184;SDS011;11258;52.516;13.318;2022-12-08T03:17:39;9.23;;;5.17;;
22184;SDS011;11258;52.516;13.318;2022-12-08T03:20:10;7.30;;;4.53;;
22184;SDS011;11258;52.516;13.318;2022-12-08T03:22:40;6.33;;;4.37;;
22184;SDS011;11258;52.516;13.318;2022-12-08T03:25:07;8.13;;;4.77;;
22184;SDS011;11258;52.516;13.318;2022-12-08T03:27:37;9.33;;;5.20;;
22184;SDS011;11258;52.516;13.318;2022-12-08T03:30:03;8.50;;;4.57;;
22184;SDS011;11258;52.516;13.318;2022-12-08T03:35:12;6.13;;;4.20;;
22184;SDS011;11258;52.516;13.318;2022-12-08T03:37:40;8.27;;;5.23;;
22184;SDS011;11258;52.516;13.318;2022-12-08T03:40:07;6.27;;;4.53;;
22184;SDS011;11258;52.516;13.318;2022-12-08T03:42:35;9.07;;;4.37;;
22184;SDS011;11258;52.516;13.318;2022-12-08T03:45:00;12.07;;;4.80;;
22184;SDS011;11258;52.516;13.318;2022-12-08T03:47:26;6.53;;;4.50;;
22184;SDS011;11258;52.516;13.318;2022-12-08T03:49:52;7.37;;;4.57;;
22184;SDS011;11258;52.516;13.318;2022-12-08T03:52:17;6.27;;;4.03;;
22184;SDS011;11258;52.516;13.318;2022-12-08T03:54:43;9.70;;;5.00;;
22184;SDS011;11258;52.516;13.318;2022-12-08T03:57:08;8.90;;;5.23;;
22184;SDS011;11258;52.516;13.318;2022-12-08T03:59:34;7.80;;;4.67;;
22184;SDS011;11258;52.516;13.318;2022-12-08T04:01:59;9.63;;;5.83;;
22184;SDS011;11258;52.516;13.318;2022-12-08T04:04:25;8.60;;;5.73;;
22184;SDS011;11258;52.516;13.318;2022-12-08T04:06:51;9.33;;;6.23;;
22184;SDS011;11258;52.516;13.318;2022-12-08T04:09:16;10.67;;;6.23;;
22184;SDS011;11258;52.516;13.318;2022-12-08T04:11:42;10.00;;;6.30;;
22184;SDS011;11258;52.516;13.318;2022-12-08T04:14:08;10.03;;;6.67;;
22184;SDS011;11258;52.516;13.318;2022-12-08T04:16:33;11.80;;;6.80;;
22184;SDS011;11258;52.516;13.318;2022-12-08T04:18:59;12.60;;;7.60;;
22184;SDS011;11258;52.516;13.318;2022-12-08T04:21:24;10.07;;;7.37;;
22184;SDS011;11258;52.516;13.318;2022-12-08T04:23:51;10.63;;;6.90;;
22184;SDS011;11258;52.516;13.318;2022-12-08T04:26:17;12.37;;;7.63;;
22184;SDS011;11258;52.516;13.318;2022-12-08T04:28:43;8.87;;;6.23;;
22184;SDS011;11258;52.516;13.318;2022-12-08T04:31:09;12.43;;;7.77;;
22184;SDS011;11258;52.516;13.318;2022-12-08T04:33:34;13.50;;;8.00;;
22184;SDS011;11258;52.516;13.318;2022-12-08T04:36:01;12.00;;;8.17;;
22184;SDS011;11258;52.516;13.318;2022-12-08T04:38:28;11.10;;;7.60;;
22184;SDS011;11258;52.516;13.318;2022-12-08T04:40:53;12.67;;;7.33;;
22184;SDS011;11258;52.516;13.318;2022-12-08T04:43:19;11.17;;;7.50;;
22184;SDS011;11258;52.516;13.318;2022-12-08T04:45:45;11.83;;;7.20;;
22184;SDS011;11258;52.516;13.318;2022-12-08T04:48:11;17.23;;;8.37;;
22184;SDS011;11258;52.516;13.318;2022-12-08T04:50:38;13.50;;;8.57;;
22184;SDS011;11258;52.516;13.318;2022-12-08T04:53:06;16.97;;;8.70;;
22184;SDS011;11258;52.516;13.318;2022-12-08T04:55:32;16.80;;;8.77;;
22184;SDS011;11258;52.516;13.318;2022-12-08T04:57:58;14.90;;;8.90;;
22184;SDS011;11258;52.516;13.318;2022-12-08T05:00:24;19.67;;;9.00;;
22184;SDS011;11258;52.516;13.318;2022-12-08T05:02:49;17.17;;;9.03;;
22184;SDS011;11258;52.516;13.318;2022-12-08T05:05:15;16.07;;;9.27;;
22184;SDS011;11258;52.516;13.318;2022-12-08T05:07:40;14.03;;;9.13;;
22184;SDS011;11258;52.516;13.318;2022-12-08T05:10:07;13.93;;;8.57;;
22184;SDS011;11258;52.516;13.318;2022-12-08T05:12:32;15.27;;;9.20;;
22184;SDS011;11258;52.516;13.318;2022-12-08T05:14:59;14.23;;;9.33;;
22184;SDS011;11258;52.516;13.318;2022-12-08T05:17:24;15.93;;;9.83;;
22184;SDS011;11258;52.516;13.318;2022-12-08T05:19:50;18.87;;;9.83;;
22184;SDS011;11258;52.516;13.318;2022-12-08T05:22:16;14.97;;;9.27;;
22184;SDS011;11258;52.516;13.318;2022-12-08T05:24:41;16.80;;;10.23;;
22184;SDS011;11258;52.516;13.318;2022-12-08T05:27:07;18.97;;;10.80;;
22184;SDS011;11258;52.516;13.318;2022-12-08T05:29:33;16.80;;;10.30;;
22184;SDS011;11258;52.516;13.318;2022-12-08T05:31:59;16.73;;;10.90;;
22184;SDS011;11258;52.516;13.318;2022-12-08T05:34:25;17.87;;;9.87;;
22184;SDS011;11258;52.516;13.318;2022-12-08T05:36:50;17.67;;;10.90;;
22184;SDS011;11258;52.516;13.318;2022-12-08T05:39:16;19.67;;;10.17;;
22184;SDS011;11258;52.516;13.318;2022-12-08T05:41:41;18.10;;;10.13;;
22184;SDS011;11258;52.516;13.318;2022-12-08T05:44:07;23.63;;;11.37;;
22184;SDS011;11258;52.516;13.318;2022-12-08T05:46:33;19.63;;;11.60;;
22184;SDS011;11258;52.516;13.318;2022-12-08T05:48:59;16.87;;;10.57;;
22184;SDS011;11258;52.516;13.318;2022-12-08T05:51:25;19.27;;;11.33;;
22184;SDS011;11258;52.516;13.318;2022-12-08T05:53:51;18.70;;;12.17;;
22184;SDS011;11258;52.516;13.318;2022-12-08T05:56:17;23.03;;;11.67;;
22184;SDS011;11258;52.516;13.318;2022-12-08T05:58:43;22.43;;;12.63;;
22184;SDS011;11258;52.516;13.318;2022-12-08T06:03:45;18.10;;;11.43;;
22184;SDS011;11258;52.516;13.318;2022-12-08T06:06:10;20.63;;;11.10;;
22184;SDS011;11258;52.516;13.318;2022-12-08T06:08:36;18.63;;;11.67;;
22184;SDS011;11258;52.516;13.318;2022-12-08T06:11:01;21.23;;;12.23;;
22184;SDS011;11258;52.516;13.318;2022-12-08T06:13:27;22.27;;;11.60;;
22184;SDS011;11258;52.516;13.318;2022-12-08T06:15:53;19.13;;;11.70;;
22184;SDS011;11258;52.516;13.318;2022-12-08T06:18:18;23.13;;;12.70;;
22184;SDS011;11258;52.516;13.318;2022-12-08T06:20:44;21.47;;;12.50;;
22184;SDS011;11258;52.516;13.318;2022-12-08T06:23:09;28.57;;;14.13;;
22184;SDS011;11258;52.516;13.318;2022-12-08T06:25:35;19.60;;;11.50;;
22184;SDS011;11258;52.516;13.318;2022-12-08T06:28:02;21.03;;;12.20;;
22184;SDS011;11258;52.516;13.318;2022-12-08T06:30:29;27.17;;;12.77;;
22184;SDS011;11258;52.516;13.318;2022-12-08T06:32:54;23.73;;;12.80;;
22184;SDS011;11258;52.516;13.318;2022-12-08T06:35:20;24.47;;;13.07;;
22184;SDS011;11258;52.516;13.318;2022-12-08T06:37:45;25.00;;;12.17;;
22184;SDS011;11258;52.516;13.318;2022-12-08T06:40:11;24.00;;;12.57;;
22184;SDS011;11258;52.516;13.318;2022-12-08T06:42:37;22.47;;;13.77;;
22184;SDS011;11258;52.516;13.318;2022-12-08T06:45:15;25.60;;;12.87;;
22184;SDS011;11258;52.516;13.318;2022-12-08T06:47:42;26.00;;;13.90;;
22184;SDS011;11258;52.516;13.318;2022-12-08T06:50:08;24.60;;;13.03;;
22184;SDS011;11258;52.516;13.318;2022-12-08T06:52:34;23.03;;;12.73;;
22184;SDS011;11258;52.516;13.318;2022-12-08T06:55:00;23.33;;;12.83;;
22184;SDS011;11258;52.516;13.318;2022-12-08T06:57:26;23.60;;;13.73;;
22184;SDS011;11258;52.516;13.318;2022-12-08T06:59:52;25.93;;;13.53;;
22184;SDS011;11258;52.516;13.318;2022-12-08T07:02:17;24.57;;;13.13;;
22184;SDS011;11258;52.516;13.318;2022-12-08T07:04:43;23.57;;;12.57;;
22184;SDS011;11258;52.516;13.318;2022-12-08T07:07:08;22.20;;;12.77;;
22184;SDS011;11258;52.516;13.318;2022-12-08T07:09:34;23.87;;;12.97;;
22184;SDS011;11258;52.516;13.318;2022-12-08T07:12:01;23.20;;;12.67;;
22184;SDS011;11258;52.516;13.318;2022-12-08T07:14:27;23.57;;;12.90;;
22184;SDS011;11258;52.516;13.318;2022-12-08T07:16:53;23.70;;;13.37;;
22184;SDS011;11258;52.516;13.318;2022-12-08T07:19:20;24.20;;;12.67;;
22184;SDS011;11258;52.516;13.318;2022-12-08T07:21:45;24.17;;;12.60;;
22184;SDS011;11258;52.516;13.318;2022-12-08T07:24:11;23.03;;;12.83;;
22184;SDS011;11258;52.516;13.318;2022-12-08T07:26:37;20.33;;;11.30;;
22184;SDS011;11258;52.516;13.318;2022-12-08T07:29:03;24.13;;;12.17;;
22184;SDS011;11258;52.516;13.318;2022-12-08T07:31:29;21.00;;;12.43;;
22184;SDS011;11258;52.516;13.318;2022-12-08T07:33:55;24.17;;;12.83;;
22184;SDS011;11258;52.516;13.318;2022-12-08T07:36:22;20.00;;;12.90;;
22184;SDS011;11258;52.516;13.318;2022-12-08T07:38:48;22.17;;;11.33;;
22184;SDS011;11258;52.516;13.318;2022-12-08T07:41:18;23.83;;;12.67;;
22184;SDS011;11258;52.516;13.318;2022-12-08T07:43:45;22.40;;;12.23;;
22184;SDS011;11258;52.516;13.318;2022-12-08T07:46:14;25.93;;;12.83;;
22184;SDS011;11258;52.516;13.318;2022-12-08T07:48:43;21.07;;;11.20;;
22184;SDS011;11258;52.516;13.318;2022-12-08T07:51:10;22.07;;;13.17;;
22184;SDS011;11258;52.516;13.318;2022-12-08T07:53:41;26.03;;;12.17;;
22184;SDS011;11258;52.516;13.318;2022-12-08T07:56:08;20.87;;;12.83;;
22184;SDS011;11258;52.516;13.318;2022-12-08T07:58:35;25.13;;;12.23;;
22184;SDS011;11258;52.516;13.318;2022-12-08T08:01:01;28.80;;;15.00;;
22184;SDS011;11258;52.516;13.318;2022-12-08T08:03:26;21.30;;;11.50;;
22184;SDS011;11258;52.516;13.318;2022-12-08T08:05:52;24.03;;;12.13;;
22184;SDS011;11258;52.516;13.318;2022-12-08T08:08:18;19.83;;;11.57;;
22184;SDS011;11258;52.516;13.318;2022-12-08T08:10:44;26.93;;;12.07;;
22184;SDS011;11258;52.516;13.318;2022-12-08T08:13:11;24.60;;;11.90;;
22184;SDS011;11258;52.516;13.318;2022-12-08T08:15:37;24.13;;;12.03;;
22184;SDS011;11258;52.516;13.318;2022-12-08T08:18:03;19.07;;;12.27;;
22184;SDS011;11258;52.516;13.318;2022-12-08T08:20:28;21.33;;;11.30;;
22184;SDS011;11258;52.516;13.318;2022-12-08T08:22:54;20.37;;;12.67;;
22184;SDS011;11258;52.516;13.318;2022-12-08T08:25:20;19.93;;;10.63;;
22184;SDS011;11258;52.516;13.318;2022-12-08T08:27:48;20.67;;;11.70;;
22184;SDS011;11258;52.516;13.318;2022-12-08T08:30:14;18.77;;;11.07;;
22184;SDS011;11258;52.516;13.318;2022-12-08T08:32:40;22.50;;;12.37;;
22184;SDS011;11258;52.516;13.318;2022-12-08T08:35:06;21.27;;;11.77;;
22184;SDS011;11258;52.516;13.318;2022-12-08T08:37:32;21.27;;;12.07;;
22184;SDS011;11258;52.516;13.318;2022-12-08T08:39:58;25.03;;;12.40;;
22184;SDS011;11258;52.516;13.318;2022-12-08T08:42:24;19.60;;;11.77;;
22184;SDS011;11258;52.516;13.318;2022-12-08T08:44:49;19.30;;;10.97;;
22184;SDS011;11258;52.516;13.318;2022-12-08T08:47:15;23.77;;;11.37;;
22184;SDS011;11258;52.516;13.318;2022-12-08T08:49:40;29.33;;;12.80;;
22184;SDS011;11258;52.516;13.318;2022-12-08T08:52:06;19.70;;;10.93;;
22184;SDS011;11258;52.516;13.318;2022-12-08T08:54:32;19.03;;;10.83;;
22184;SDS011;11258;52.516;13.318;2022-12-08T08:56:58;20.00;;;11.20;;
22184;SDS011;11258;52.516;13.318;2022-12-08T08:59:24;21.93;;;11.03;;
22184;SDS011;11258;52.516;13.318;2022-12-08T09:01:51;18.97;;;10.83;;
22184;SDS011;11258;52.516;13.318;2022-12-08T09:04:16;19.93;;;10.03;;
22184;SDS011;11258;52.516;13.318;2022-12-08T09:06:42;15.93;;;10.23;;
22184;SDS011;11258;52.516;13.318;2022-12-08T09:09:09;19.27;;;11.90;;
22184;SDS011;11258;52.516;13.318;2022-12-08T09:11:35;22.03;;;11.17;;
22184;SDS011;11258;52.516;13.318;2022-12-08T09:14:01;17.83;;;10.73;;
22184;SDS011;11258;52.516;13.318;2022-12-08T09:16:26;19.50;;;11.70;;
22184;SDS011;11258;52.516;13.318;2022-12-08T09:18:52;25.33;;;11.47;;
22184;SDS011;11258;52.516;13.318;2022-12-08T09:21:22;20.13;;;11.17;;
22184;SDS011;11258;52.516;13.318;2022-12-08T09:23:50;17.73;;;10.90;;
22184;SDS011;11258;52.516;13.318;2022-12-08T09:26:18;18.80;;;10.30;;
22184;SDS011;11258;52.516;13.318;2022-12-08T09:28:46;21.93;;;10.80;;
22184;SDS011;11258;52.516;13.318;2022-12-08T09:31:14;18.23;;;10.33;;
22184;SDS011;11258;52.516;13.318;2022-12-08T09:33:41;18.03;;;10.87;;
22184;SDS011;11258;52.516;13.318;2022-12-08T09:36:07;19.03;;;10.40;;
22184;SDS011;11258;52.516;13.318;2022-12-08T09:38:33;16.60;;;10.83;;
22184;SDS011;11258;52.516;13.318;2022-12-08T09:40:59;18.60;;;10.97;;
22184;SDS011;11258;52.516;13.318;2022-12-08T09:46:31;23.00;;;11.40;;
22184;SDS011;11258;52.516;13.318;2022-12-08T09:48:58;19.17;;;10.63;;
22184;SDS011;11258;52.516;13.318;2022-12-08T09:51:26;24.17;;;11.33;;
22184;SDS011;11258;52.516;13.318;2022-12-08T09:53:59;19.70;;;10.73;;
22184;SDS011;11258;52.516;13.318;2022-12-08T09:56:32;21.30;;;11.73;;
22184;SDS011;11258;52.516;13.318;2022-12-08T10:01:40;21.37;;;11.23;;
22184;SDS011;11258;52.516;13.318;2022-12-08T10:04:23;19.87;;;11.27;;
22184;SDS011;11258;52.516;13.318;2022-12-08T10:17:52;16.73;;;10.17;;
22184;SDS011;11258;52.516;13.318;2022-12-08T10:20:20;20.47;;;11.33;;
22184;SDS011;11258;52.516;13.318;2022-12-08T10:22:49;18.73;;;10.23;;
22184;SDS011;11258;52.516;13.318;2022-12-08T10:25:31;19.40;;;10.80;;
22184;SDS011;11258;52.516;13.318;2022-12-08T10:28:04;17.43;;;10.63;;
22184;SDS011;11258;52.516;13.318;2022-12-08T10:30:30;18.83;;;9.73;;
22184;SDS011;11258;52.516;13.318;2022-12-08T10:32:55;17.93;;;10.60;;
22184;SDS011;11258;52.516;13.318;2022-12-08T10:35:21;20.23;;;10.77;;
22184;SDS011;11258;52.516;13.318;2022-12-08T10:37:59;18.50;;;10.93;;
22184;SDS011;11258;52.516;13.318;2022-12-08T10:40:28;17.90;;;9.93;;
22184;SDS011;11258;52.516;13.318;2022-12-08T10:42:59;15.87;;;9.87;;
22184;SDS011;11258;52.516;13.318;2022-12-08T10:45:58;15.20;;;9.40;;
22184;SDS011;11258;52.516;13.318;2022-12-08T10:48:21;13.37;;;9.23;;
22184;SDS011;11258;52.516;13.318;2022-12-08T10:53:21;16.27;;;8.97;;
22184;SDS011;11258;52.516;13.318;2022-12-08T10:58:33;16.40;;;9.30;;
22184;SDS011;11258;52.516;13.318;2022-12-08T11:01:11;12.47;;;8.50;;
22184;SDS011;11258;52.516;13.318;2022-12-08T11:03:44;12.90;;;8.17;;
22184;SDS011;11258;52.516;13.318;2022-12-08T11:06:22;12.80;;;8.07;;
22184;SDS011;11258;52.516;13.318;2022-12-08T11:09:00;15.10;;;8.67;;
22184;SDS011;11258;52.516;13.318;2022-12-08T11:11:49;15.40;;;9.13;;
22184;SDS011;11258;52.516;13.318;2022-12-08T11:16:48;13.23;;;8.37;;
22184;SDS011;11258;52.516;13.318;2022-12-08T11:19:18;12.03;;;8.73;;
22184;SDS011;11258;52.516;13.318;2022-12-08T11:21:44;12.03;;;8.13;;
22184;SDS011;11258;52.516;13.318;2022-12-08T11:26:49;12.93;;;8.27;;
22184;SDS011;11258;52.516;13.318;2022-12-08T11:29:18;15.87;;;9.10;;
22184;SDS011;11258;52.516;13.318;2022-12-08T11:31:56;16.47;;;8.33;;
22184;SDS011;11258;52.516;13.318;2022-12-08T11:34:31;16.90;;;9.47;;
22184;SDS011;11258;52.516;13.318;2022-12-08T11:37:03;13.53;;;8.50;;
22184;SDS011;11258;52.516;13.318;2022-12-08T11:39:31;19.70;;;10.07;;
22184;SDS011;11258;52.516;13.318;2022-12-08T11:42:00;16.47;;;9.17;;
22184;SDS011;11258;52.516;13.318;2022-12-08T11:44:30;13.47;;;8.63;;
22184;SDS011;11258;52.516;13.318;2022-12-08T11:47:04;14.50;;;9.83;;
22184;SDS011;11258;52.516;13.318;2022-12-08T11:49:39;15.97;;;10.07;;
22184;SDS011;11258;52.516;13.318;2022-12-08T11:57:25;18.70;;;11.00;;
22184;SDS011;11258;52.516;13.318;2022-12-08T11:59:53;16.60;;;10.73;;
22184;SDS011;11258;52.516;13.318;2022-12-08T12:02:28;18.03;;;9.23;;
22184;SDS011;11258;52.516;13.318;2022-12-08T12:05:02;14.63;;;9.40;;
22184;SDS011;11258;52.516;13.318;2022-12-08T12:18:01;21.40;;;10.87;;
22184;SDS011;11258;52.516;13.318;2022-12-08T12:20:32;17.37;;;9.83;;
22184;SDS011;11258;52.516;13.318;2022-12-08T12:23:13;16.97;;;9.43;;
22184;SDS011;11258;52.516;13.318;2022-12-08T12:25:48;17.07;;;10.60;;
22184;SDS011;11258;52.516;13.318;2022-12-08T12:28:19;15.90;;;9.67;;
22184;SDS011;11258;52.516;13.318;2022-12-08T12:30:55;15.43;;;9.20;;
22184;SDS011;11258;52.516;13.318;2022-12-08T12:33:26;17.03;;;10.10;;
22184;SDS011;11258;52.516;13.318;2022-12-08T12:35:55;20.07;;;9.67;;
22184;SDS011;11258;52.516;13.318;2022-12-08T12:38:23;14.63;;;9.27;;
22184;SDS011;11258;52.516;13.318;2022-12-08T12:41:13;19.13;;;9.73;;
22184;SDS011;11258;52.516;13.318;2022-12-08T12:43:40;20.97;;;11.13;;
22184;SDS011;11258;52.516;13.318;2022-12-08T13:02:19;14.67;;;9.33;;
22184;SDS011;11258;52.516;13.318;2022-12-08T13:05:01;13.97;;;8.93;;
22184;SDS011;11258;52.516;13.318;2022-12-08T13:07:49;16.13;;;8.80;;
22184;SDS011;11258;52.516;13.318;2022-12-08T13:10:23;14.37;;;8.60;;
22184;SDS011;11258;52.516;13.318;2022-12-08T13:13:06;13.00;;;8.17;;
22184;SDS011;11258;52.516;13.318;2022-12-08T13:15:40;16.40;;;8.93;;
22184;SDS011;11258;52.516;13.318;2022-12-08T13:20:56;10.47;;;7.10;;
22184;SDS011;11258;52.516;13.318;2022-12-08T13:47:40;12.70;;;8.60;;
22184;SDS011;11258;52.516;13.318;2022-12-08T13:50:38;13.17;;;8.33;;
22184;SDS011;11258;52.516;13.318;2022-12-08T13:53:12;13.73;;;7.50;;
22184;SDS011;11258;52.516;13.318;2022-12-08T13:58:50;14.80;;;9.30;;
22184;SDS011;11258;52.516;13.318;2022-12-08T14:06:16;12.17;;;8.53;;
22184;SDS011;11258;52.516;13.318;2022-12-08T14:08:45;13.13;;;8.73;;
22184;SDS011;11258;52.516;13.318;2022-12-08T14:11:20;13.10;;;8.40;;
22184;SDS011;11258;52.516;13.318;2022-12-08T14:14:11;15.00;;;10.00;;
22184;SDS011;11258;52.516;13.318;2022-12-08T14:16:41;12.60;;;7.50;;
22184;SDS011;11258;52.516;13.318;2022-12-08T14:19:17;13.77;;;7.87;;
22184;SDS011;11258;52.516;13.318;2022-12-08T14:24:35;14.63;;;7.33;;
22184;SDS011;11258;52.516;13.318;2022-12-08T14:27:02;9.93;;;6.30;;
22184;SDS011;11258;52.516;13.318;2022-12-08T14:32:18;15.87;;;6.70;;
22184;SDS011;11258;52.516;13.318;2022-12-08T14:37:19;9.03;;;6.40;;
22184;SDS011;11258;52.516;13.318;2022-12-08T14:39:45;11.27;;;6.77;;
22184;SDS011;11258;52.516;13.318;2022-12-08T14:42:17;11.10;;;6.37;;
22184;SDS011;11258;52.516;13.318;2022-12-08T14:45:05;11.43;;;6.10;;
22184;SDS011;11258;52.516;13.318;2022-12-08T14:47:35;10.47;;;6.57;;
22184;SDS011;11258;52.516;13.318;2022-12-08T14:50:01;9.20;;;6.33;;
22184;SDS011;11258;52.516;13.318;2022-12-08T14:52:29;11.83;;;7.50;;
22184;SDS011;11258;52.516;13.318;2022-12-08T14:54:55;11.73;;;7.30;;
22184;SDS011;11258;52.516;13.318;2022-12-08T14:57:22;11.93;;;6.27;;
22184;SDS011;11258;52.516;13.318;2022-12-08T14:59:55;12.57;;;6.77;;
22184;SDS011;11258;52.516;13.318;2022-12-08T15:02:23;10.70;;;6.63;;
22184;SDS011;11258;52.516;13.318;2022-12-08T15:05:04;11.67;;;7.13;;
22184;SDS011;11258;52.516;13.318;2022-12-08T15:15:51;13.57;;;8.07;;
22184;SDS011;11258;52.516;13.318;2022-12-08T15:18:20;11.57;;;7.37;;
22184;SDS011;11258;52.516;13.318;2022-12-08T15:21:04;10.43;;;7.40;;
22184;SDS011;11258;52.516;13.318;2022-12-08T15:23:42;9.73;;;7.20;;
22184;SDS011;11258;52.516;13.318;2022-12-08T15:26:20;12.93;;;8.80;;
22184;SDS011;11258;52.516;13.318;2022-12-08T15:28:47;9.97;;;7.10;;
22184;SDS011;11258;52.516;13.318;2022-12-08T15:31:13;11.60;;;7.33;;
22184;SDS011;11258;52.516;13.318;2022-12-08T15:33:39;14.30;;;7.90;;
22184;SDS011;11258;52.516;13.318;2022-12-08T15:36:05;14.50;;;10.30;;
22184;SDS011;11258;52.516;13.318;2022-12-08T15:38:31;12.27;;;8.37;;
22184;SDS011;11258;52.516;13.318;2022-12-08T15:40:56;13.07;;;8.33;;
22184;SDS011;11258;52.516;13.318;2022-12-08T15:43:25;13.53;;;7.93;;
22184;SDS011;11258;52.516;13.318;2022-12-08T15:45:52;17.80;;;8.03;;
22184;SDS011;11258;52.516;13.318;2022-12-08T15:48:20;13.57;;;8.67;;
22184;SDS011;11258;52.516;13.318;2022-12-08T15:50:48;12.77;;;8.17;;
22184;SDS011;11258;52.516;13.318;2022-12-08T15:53:14;15.60;;;8.27;;
22184;SDS011;11258;52.516;13.318;2022-12-08T15:55:41;14.30;;;8.13;;
22184;SDS011;11258;52.516;13.318;2022-12-08T15:58:09;10.90;;;7.77;;
22184;SDS011;11258;52.516;13.318;2022-12-08T16:00:46;12.47;;;7.93;;
22184;SDS011;11258;52.516;13.318;2022-12-08T16:03:28;13.87;;;9.53;;
22184;SDS011;11258;52.516;13.318;2022-12-08T16:05:58;10.63;;;7.67;;
22184;SDS011;11258;52.516;13.318;2022-12-08T16:08:25;13.00;;;8.87;;
22184;SDS011;11258;52.516;13.318;2022-12-08T16:10:54;16.27;;;10.70;;
22184;SDS011;11258;52.516;13.318;2022-12-08T16:13:40;13.80;;;8.77;;
22184;SDS011;11258;52.516;13.318;2022-12-08T16:16:15;13.80;;;7.87;;
22184;SDS011;11258;52.516;13.318;2022-12-08T16:18:45;14.00;;;8.60;;
22184;SDS011;11258;52.516;13.318;2022-12-08T16:21:12;14.97;;;9.37;;
22184;SDS011;11258;52.516;13.318;2022-12-08T16:23:38;12.30;;;8.13;;
22184;SDS011;11258;52.516;13.318;2022-12-08T16:26:04;12.87;;;8.83;;
22184;SDS011;11258;52.516;13.318;2022-12-08T16:28:33;13.67;;;9.03;;
22184;SDS011;11258;52.516;13.318;2022-12-08T16:30:58;19.17;;;8.83;;
22184;SDS011;11258;52.516;13.318;2022-12-08T16:33:24;15.43;;;8.60;;
22184;SDS011;11258;52.516;13.318;2022-12-08T16:35:50;13.90;;;8.83;;
22184;SDS011;11258;52.516;13.318;2022-12-08T16:38:15;14.53;;;8.47;;
22184;SDS011;11258;52.516;13.318;2022-12-08T16:40:47;9.53;;;7.27;;
22184;SDS011;11258;52.516;13.318;2022-12-08T16:43:32;12.60;;;8.43;;
22184;SDS011;11258;52.516;13.318;2022-12-08T16:45:59;11.63;;;7.47;;
22184;SDS011;11258;52.516;13.318;2022-12-08T16:48:25;11.70;;;7.87;;
22184;SDS011;11258;52.516;13.318;2022-12-08T16:50:51;11.20;;;7.03;;
22184;SDS011;11258;52.516;13.318;2022-12-08T16:53:17;13.43;;;8.97;;
22184;SDS011;11258;52.516;13.318;2022-12-08T16:55:46;11.80;;;8.10;;